Time;durP1;ratioP1;P1;durP2;ratioP2;P2;SDS_P1;SDS_P2;PMS_P1;PMS_P2;Temp;Humidity;BMP_temperature;BMP_pressure;BME280_temperature;BME280_humidity;BME280_pressure;Samples;Min_cycle;Max_cycle;Signal;HPM_P1;HPM_P2
2023/04/08 00:00:36;;;;;;;0.00;0.00;;;8.80;69.50;;;;;;5095254;28;20106;-73
2023/04/08 00:03:02;;;;;;;0.00;0.00;;;8.60;70.40;;;;;;5102667;27;20531;-73
2023/04/08 00:05:28;;;;;;;0.10;0.10;;;8.60;70.50;;;;;;5092275;28;20035;-73
2023/04/08 00:07:54;;;;;;;0.10;0.10;;;8.80;69.80;;;;;;5101376;28;20030;-72
2023/04/08 00:10:19;;;;;;;0.60;0.60;;;8.60;70.60;;;;;;5098258;28;20036;-72
2023/04/08 00:12:46;;;;;;;0.32;0.32;;;8.50;70.70;;;;;;5097124;28;20028;-73
2023/04/08 00:15:12;;;;;;;0.10;0.10;;;8.60;70.60;;;;;;5093808;27;20032;-73
2023/04/08 00:17:38;;;;;;;0.00;0.00;;;8.60;71.00;;;;;;5099384;27;20091;-72
2023/04/08 00:20:04;;;;;;;0.00;0.00;;;8.40;71.20;;;;;;5100471;27;20827;-72
2023/04/08 00:22:30;;;;;;;0.00;0.00;;;8.40;71.50;;;;;;5102779;28;20024;-72
2023/04/08 00:24:57;;;;;;;0.05;0.05;;;8.50;70.90;;;;;;5100321;28;20027;-72
2023/04/08 00:27:24;;;;;;;0.00;0.00;;;8.40;71.30;;;;;;5102739;28;20024;-73
2023/04/08 00:29:50;;;;;;;0.10;0.10;;;8.30;71.60;;;;;;5102716;27;20064;-72
2023/04/08 00:32:16;;;;;;;0.10;0.10;;;8.40;71.40;;;;;;5102314;28;20028;-72
2023/04/08 00:34:42;;;;;;;0.10;0.10;;;8.40;71.70;;;;;;5102793;28;20032;-73
2023/04/08 00:37:08;;;;;;;0.00;0.00;;;8.30;71.90;;;;;;5102754;27;20019;-73
2023/04/08 00:39:33;;;;;;;4.95;0.85;;;8.20;72.10;;;;;;5098018;28;20446;-72
2023/04/08 00:42:00;;;;;;;0.28;0.20;;;8.20;72.10;;;;;;5083599;28;20486;-73
2023/04/08 00:44:26;;;;;;;0.10;0.10;;;8.20;71.90;;;;;;5102197;28;20546;-73
2023/04/08 00:46:52;;;;;;;0.10;0.10;;;8.10;72.40;;;;;;5094333;28;20482;-73
2023/04/08 00:49:18;;;;;;;0.20;0.20;;;8.10;72.80;;;;;;5094319;28;20035;-73
2023/04/08 00:51:44;;;;;;;2.13;1.45;;;8.00;73.80;;;;;;5095277;28;20131;-73
2023/04/08 00:54:10;;;;;;;0.00;0.00;;;8.00;73.00;;;;;;5095678;28;20439;-73
2023/04/08 00:56:36;;;;;;;0.20;0.20;;;8.00;73.30;;;;;;5093428;28;20111;-73
2023/04/08 00:59:03;;;;;;;0.10;0.10;;;7.90;73.60;;;;;;5084138;28;20704;-73
2023/04/08 01:01:29;;;;;;;0.10;0.10;;;7.90;74.10;;;;;;5101755;28;20384;-73
2023/04/08 01:04:12;;;;;;;0.13;0.13;;;7.90;74.20;;;;;;5102524;28;20024;-73
2023/04/08 01:06:47;;;;;;;0.00;0.00;;;7.90;74.00;;;;;;5101280;28;20612;-73
2023/04/08 01:09:17;;;;;;;0.08;0.08;;;7.90;73.70;;;;;;5094051;28;20065;-73
2023/04/08 01:11:45;;;;;;;2.10;0.40;;;7.70;74.70;;;;;;5098977;28;20032;-73
2023/04/08 01:14:16;;;;;;;0.10;0.10;;;7.80;74.30;;;;;;5096845;28;20024;-72
2023/04/08 01:16:44;;;;;;;0.10;0.10;;;7.70;74.50;;;;;;5101291;28;20080;-73
2023/04/08 01:19:20;;;;;;;0.10;0.10;;;7.60;75.10;;;;;;5099540;28;20020;-74
2023/04/08 01:21:46;;;;;;;0.00;0.00;;;7.70;75.60;;;;;;5095746;28;20031;-74
2023/04/08 01:24:29;;;;;;;0.05;0.05;;;7.70;74.60;;;;;;5095387;28;20031;-73
2023/04/08 01:26:57;;;;;;;0.20;0.20;;;7.60;75.00;;;;;;5103038;28;20510;-73
2023/04/08 01:29:23;;;;;;;;;;;7.60;75.30;;;;;;5106605;28;20019;-74
2023/04/08 01:31:50;;;;;;;;;;;7.60;75.40;;;;;;5101243;28;19911;-73
2023/04/08 01:34:18;;;;;;;0.00;0.00;;;7.40;76.30;;;;;;5102230;28;19918;-73
2023/04/08 01:36:45;;;;;;;0.10;0.10;;;7.50;76.40;;;;;;5100521;28;20074;-73
2023/04/08 01:39:13;;;;;;;0.00;0.00;;;7.60;75.80;;;;;;5095751;28;20810;-73
2023/04/08 01:41:40;;;;;;;0.10;0.10;;;7.50;76.10;;;;;;5102431;28;20039;-74
2023/04/08 01:44:06;;;;;;;0.00;0.00;;;7.40;76.40;;;;;;5089236;28;20332;-73
2023/04/08 01:46:32;;;;;;;0.00;0.00;;;7.30;76.90;;;;;;5101706;28;20062;-73
2023/04/08 01:48:58;;;;;;;0.00;0.00;;;7.20;77.10;;;;;;5102118;28;20024;-73
2023/04/08 01:51:25;;;;;;;0.20;0.20;;;7.20;77.30;;;;;;5095514;28;20055;-73
2023/04/08 01:53:51;;;;;;;;;;;7.20;77.50;;;;;;5100057;28;20042;-74
2023/04/08 01:56:21;;;;;;;0.03;0.03;;;7.20;77.80;;;;;;5100774;28;19907;-74
2023/04/08 01:58:51;;;;;;;0.00;0.00;;;7.20;77.60;;;;;;5096914;28;20041;-73
2023/04/08 02:01:19;;;;;;;0.00;0.00;;;7.30;77.40;;;;;;5093528;28;20854;-74
2023/04/08 02:03:46;;;;;;;0.10;0.10;;;7.10;78.10;;;;;;5100889;28;20063;-72
2023/04/08 02:06:12;;;;;;;0.00;0.00;;;7.00;78.80;;;;;;5074512;28;20034;-73
2023/04/08 02:08:38;;;;;;;0.00;0.00;;;7.10;78.30;;;;;;5093182;28;20032;-73
2023/04/08 02:11:03;;;;;;;0.20;0.20;;;7.00;78.60;;;;;;5099118;28;20047;-73
2023/04/08 02:13:30;;;;;;;0.08;0.08;;;6.90;78.70;;;;;;5097305;28;20043;-73
2023/04/08 02:16:18;;;;;;;0.10;0.10;;;7.20;78.00;;;;;;5091537;28;20012;-73
2023/04/08 02:18:57;;;;;;;0.10;0.10;;;7.00;78.10;;;;;;5098582;28;20032;-72
2023/04/08 02:21:33;;;;;;;0.00;0.00;;;7.00;78.60;;;;;;5103334;28;20042;-73
2023/04/08 02:24:03;;;;;;;0.10;0.10;;;6.80;79.30;;;;;;5101475;28;20084;-72
2023/04/08 02:26:32;;;;;;;0.00;0.00;;;6.80;79.20;;;;;;5091028;28;20038;-72
2023/04/08 02:28:58;;;;;;;0.17;0.17;;;6.70;79.50;;;;;;5097463;28;20024;-73
2023/04/08 02:31:25;;;;;;;0.85;0.65;;;6.80;80.00;;;;;;5097815;28;20028;-72
2023/04/08 02:33:52;;;;;;;0.03;0.03;;;6.70;80.20;;;;;;5101833;28;20040;-72
2023/04/08 02:36:18;;;;;;;0.05;0.05;;;6.60;80.30;;;;;;5095554;28;20490;-73
2023/04/08 02:38:50;;;;;;;0.10;0.10;;;6.60;80.70;;;;;;5094927;28;20107;-73
2023/04/08 02:41:16;;;;;;;0.15;0.15;;;6.50;81.10;;;;;;5092850;28;20067;-73
2023/04/08 02:43:42;;;;;;;0.43;0.43;;;6.50;81.30;;;;;;5090530;28;20828;-73
2023/04/08 02:46:10;;;;;;;0.00;0.00;;;6.40;81.90;;;;;;5094550;28;20032;-73
2023/04/08 02:48:36;;;;;;;6.22;0.57;;;6.30;82.10;;;;;;5097035;28;20817;-73
2023/04/08 02:51:01;;;;;;;0.00;0.00;;;6.40;82.10;;;;;;5098172;28;20042;-74
2023/04/08 02:53:27;;;;;;;0.60;0.60;;;6.50;81.80;;;;;;5099691;28;20113;-74
2023/04/08 02:55:53;;;;;;;0.10;0.10;;;6.50;81.60;;;;;;5102325;28;20036;-73
2023/04/08 02:58:19;;;;;;;0.00;0.00;;;6.50;82.20;;;;;;5102118;28;20055;-72
2023/04/08 03:00:45;;;;;;;0.08;0.08;;;6.50;82.40;;;;;;5103916;28;20028;-74
2023/04/08 03:03:10;;;;;;;0.10;0.10;;;6.40;82.80;;;;;;5103838;28;20031;-73
2023/04/08 03:05:36;;;;;;;0.10;0.10;;;6.30;83.10;;;;;;5104161;28;20029;-74
2023/04/08 03:08:02;;;;;;;0.10;0.10;;;6.40;83.10;;;;;;5101143;28;20035;-74
2023/04/08 03:10:27;;;;;;;0.10;0.10;;;6.30;83.60;;;;;;5100040;28;20484;-74
2023/04/08 03:12:53;;;;;;;0.00;0.00;;;6.30;83.60;;;;;;5099028;28;20035;-73
2023/04/08 03:15:19;;;;;;;0.00;0.00;;;6.20;84.00;;;;;;5104241;28;20027;-73
2023/04/08 03:17:44;;;;;;;0.30;0.30;;;6.10;84.60;;;;;;5098241;28;20081;-73
2023/04/08 03:20:10;;;;;;;0.57;0.57;;;6.10;84.70;;;;;;5104005;28;20573;-72
2023/04/08 03:22:36;;;;;;;0.03;0.03;;;6.10;84.70;;;;;;5103380;28;20035;-72
2023/04/08 03:25:02;;;;;;;0.00;0.00;;;5.90;85.60;;;;;;5095321;28;20027;-72
2023/04/08 03:27:28;;;;;;;0.25;0.25;;;5.90;85.60;;;;;;5103751;28;20104;-74
2023/04/08 03:29:56;;;;;;;0.10;0.10;;;5.90;86.00;;;;;;5099656;27;20122;-73
2023/04/08 03:32:22;;;;;;;0.08;0.08;;;5.90;86.10;;;;;;5097490;28;20127;-73
2023/04/08 03:34:49;;;;;;;0.10;0.10;;;5.80;86.50;;;;;;5097570;28;20806;-73
2023/04/08 03:37:16;;;;;;;0.10;0.10;;;5.80;86.50;;;;;;5101545;28;20607;-74
2023/04/08 03:39:41;;;;;;;0.10;0.10;;;5.80;86.70;;;;;;5094536;28;20574;-74
2023/04/08 03:42:07;;;;;;;0.03;0.03;;;5.70;87.30;;;;;;5095125;28;20073;-72
2023/04/08 03:44:33;;;;;;;0.00;0.00;;;5.50;88.00;;;;;;5097055;28;20020;-74
2023/04/08 03:46:59;;;;;;;0.00;0.00;;;5.50;88.00;;;;;;5099051;28;20146;-73
2023/04/08 03:49:24;;;;;;;0.00;0.00;;;5.50;87.90;;;;;;5094299;28;20094;-72
2023/04/08 03:51:50;;;;;;;0.00;0.00;;;5.50;88.30;;;;;;5096001;28;20534;-72
2023/04/08 03:54:16;;;;;;;0.10;0.10;;;5.50;88.30;;;;;;5102485;28;20638;-73
2023/04/08 03:56:41;;;;;;;0.80;0.30;;;5.40;89.10;;;;;;5083034;28;20055;-74
2023/04/08 03:59:07;;;;;;;0.03;0.03;;;5.30;89.60;;;;;;5094855;28;20066;-73
2023/04/08 04:01:32;;;;;;;0.00;0.00;;;5.30;89.90;;;;;;5084738;28;20032;-75
2023/04/08 04:03:58;;;;;;;0.30;0.30;;;5.20;90.10;;;;;;5091465;28;20020;-74
2023/04/08 04:06:24;;;;;;;0.05;0.05;;;5.20;90.30;;;;;;5092838;28;20450;-74
2023/04/08 04:08:53;;;;;;;0.00;0.00;;;5.20;90.10;;;;;;5100957;28;20058;-74
2023/04/08 04:11:20;;;;;;;0.00;0.00;;;5.20;90.20;;;;;;5091562;28;20089;-74
2023/04/08 04:13:45;;;;;;;0.95;0.30;;;5.30;90.00;;;;;;5101450;28;20062;-74
2023/04/08 04:16:11;;;;;;;0.10;0.10;;;5.20;90.30;;;;;;5099090;28;20138;-74
2023/04/08 04:18:37;;;;;;;0.00;0.00;;;5.20;90.40;;;;;;5095403;28;20035;-75
2023/04/08 04:21:06;;;;;;;0.10;0.10;;;5.00;90.60;;;;;;5097544;28;20325;-74
2023/04/08 04:23:31;;;;;;;0.30;0.30;;;5.10;90.70;;;;;;5086859;28;20135;-73
2023/04/08 04:25:57;;;;;;;0.00;0.00;;;5.00;90.70;;;;;;5089158;28;20529;-73
2023/04/08 04:28:23;;;;;;;0.17;0.17;;;5.00;90.70;;;;;;5101141;28;20276;-72
2023/04/08 04:30:48;;;;;;;0.10;0.10;;;5.10;90.60;;;;;;5092248;28;20108;-73
2023/04/08 04:33:14;;;;;;;0.40;0.40;;;5.20;90.50;;;;;;5099409;28;20035;-72
2023/04/08 04:35:40;;;;;;;0.10;0.10;;;5.00;90.80;;;;;;5100400;28;20050;-73
2023/04/08 04:38:11;;;;;;;0.10;0.10;;;5.10;90.90;;;;;;5096685;28;20026;-73
2023/04/08 04:40:38;;;;;;;0.40;0.40;;;5.20;90.40;;;;;;5097457;28;20501;-72
2023/04/08 04:43:04;;;;;;;0.15;0.15;;;5.10;90.60;;;;;;5098806;28;20032;-71
2023/04/08 04:45:30;;;;;;;0.03;0.03;;;5.10;90.70;;;;;;5094415;28;20032;-73
2023/04/08 04:47:56;;;;;;;0.00;0.00;;;5.20;90.40;;;;;;5096185;28;20034;-73
2023/04/08 04:50:21;;;;;;;0.20;0.20;;;5.10;90.60;;;;;;5098562;28;20028;-73
2023/04/08 04:52:47;;;;;;;0.22;0.22;;;5.10;90.80;;;;;;5099337;28;20068;-73
2023/04/08 04:55:14;;;;;;;0.00;0.00;;;5.10;90.80;;;;;;5091801;28;20043;-72
2023/04/08 04:57:40;;;;;;;0.00;0.00;;;4.90;91.10;;;;;;5096157;28;20512;-73
2023/04/08 05:00:07;;;;;;;2.83;0.38;;;5.00;91.00;;;;;;5101085;28;20015;-72
2023/04/08 05:02:33;;;;;;;0.00;0.00;;;5.00;91.30;;;;;;5096810;28;20034;-74
2023/04/08 05:04:58;;;;;;;0.00;0.00;;;4.80;91.50;;;;;;5097594;28;20028;-73
2023/04/08 05:07:24;;;;;;;0.55;0.55;;;5.00;91.40;;;;;;5098907;28;20126;-73
2023/04/08 05:09:50;;;;;;;0.10;0.10;;;4.90;91.60;;;;;;5094264;28;20534;-73
2023/04/08 05:12:16;;;;;;;0.20;0.20;;;4.90;91.70;;;;;;5102392;28;20032;-73
2023/04/08 05:14:41;;;;;;;0.30;0.30;;;4.90;91.90;;;;;;5101806;28;20036;-74
2023/04/08 05:17:07;;;;;;;0.00;0.00;;;4.90;91.70;;;;;;5100759;28;20027;-74
2023/04/08 05:19:32;;;;;;;0.52;0.52;;;4.90;91.60;;;;;;5102010;28;20031;-73
2023/04/08 05:21:58;;;;;;;0.08;0.08;;;4.80;91.70;;;;;;5089560;28;20055;-73
2023/04/08 05:24:24;;;;;;;0.10;0.10;;;4.70;92.00;;;;;;5100920;28;20115;-73
2023/04/08 05:26:52;;;;;;;0.30;0.30;;;4.70;92.00;;;;;;5094108;28;20067;-73
2023/04/08 05:29:18;;;;;;;0.10;0.10;;;4.60;92.20;;;;;;5090797;28;20200;-73
2023/04/08 05:31:44;;;;;;;0.00;0.00;;;4.60;92.40;;;;;;5094677;28;20501;-74
2023/04/08 05:34:10;;;;;;;0.10;0.10;;;4.70;92.50;;;;;;5089887;28;20039;-73
2023/04/08 05:36:36;;;;;;;0.10;0.10;;;5.10;92.10;;;;;;5084092;28;20036;-73
2023/04/08 05:39:01;;;;;;;0.75;0.55;;;5.90;90.10;;;;;;5089788;28;20032;-73
2023/04/08 05:41:27;;;;;;;0.00;0.00;;;6.40;87.40;;;;;;5092526;28;20036;-73
2023/04/08 05:43:53;;;;;;;0.20;0.20;;;6.70;85.20;;;;;;5101177;28;20023;-73
2023/04/08 05:46:18;;;;;;;0.60;0.60;;;6.90;84.80;;;;;;5100513;28;20040;-73
2023/04/08 05:48:44;;;;;;;0.10;0.10;;;7.30;83.00;;;;;;5096549;28;20038;-73
2023/04/08 05:51:14;;;;;;;0.85;0.82;;;7.60;81.50;;;;;;5101238;28;20039;-73
2023/04/08 05:53:40;;;;;;;0.00;0.00;;;7.70;81.40;;;;;;5101781;28;20520;-73
2023/04/08 05:56:06;;;;;;;3.38;0.85;;;8.00;79.80;;;;;;5102589;28;20027;-73
2023/04/08 05:58:31;;;;;;;0.15;0.15;;;8.10;78.20;;;;;;5093516;28;20036;-73
2023/04/08 06:00:57;;;;;;;0.68;0.68;;;8.40;78.20;;;;;;5103729;28;20036;-74
2023/04/08 06:03:23;;;;;;;0.10;0.10;;;8.60;77.60;;;;;;5094817;28;20027;-73
2023/04/08 06:05:49;;;;;;;0.20;0.20;;;8.80;76.70;;;;;;5100542;28;20032;-74
2023/04/08 06:08:15;;;;;;;0.10;0.10;;;8.80;76.00;;;;;;5096871;28;20028;-75
2023/04/08 06:10:48;;;;;;;0.10;0.10;;;9.20;75.70;;;;;;5101089;28;20020;-74
2023/04/08 06:13:14;;;;;;;0.10;0.10;;;9.30;75.60;;;;;;5101270;28;20049;-74
2023/04/08 06:15:40;;;;;;;0.10;0.10;;;9.80;73.00;;;;;;5094450;28;20041;-74
2023/04/08 06:18:06;;;;;;;0.10;0.10;;;10.00;72.80;;;;;;5102598;28;20035;-74
2023/04/08 06:20:31;;;;;;;0.00;0.00;;;10.30;71.50;;;;;;5090658;28;20108;-74
2023/04/08 06:22:57;;;;;;;0.20;0.20;;;10.50;71.60;;;;;;5104139;28;20725;-75
2023/04/08 06:25:23;;;;;;;0.10;0.10;;;10.70;70.20;;;;;;5091909;28;20148;-75
2023/04/08 06:27:49;;;;;;;0.17;0.17;;;10.80;70.20;;;;;;5094874;28;20012;-74
2023/04/08 06:30:15;;;;;;;0.03;0.03;;;10.90;71.00;;;;;;5096240;28;20039;-75
2023/04/08 06:32:41;;;;;;;0.10;0.10;;;11.10;70.20;;;;;;5094734;28;20028;-73
2023/04/08 06:35:07;;;;;;;0.10;0.10;;;11.20;69.80;;;;;;5103829;28;20035;-74
2023/04/08 06:37:37;;;;;;;0.50;0.50;;;11.20;68.70;;;;;;5100036;28;20113;-76
2023/04/08 06:40:04;;;;;;;0.10;0.10;;;11.20;70.80;;;;;;5095637;28;20016;-75
2023/04/08 06:42:29;;;;;;;;;;;11.50;69.30;;;;;;5099819;28;20035;-76
2023/04/08 06:44:55;;;;;;;0.10;0.10;;;11.50;68.60;;;;;;5102193;28;19918;-74
2023/04/08 06:47:21;;;;;;;0.13;0.13;;;11.70;68.20;;;;;;5101087;28;20750;-74
2023/04/08 06:49:47;;;;;;;0.10;0.10;;;11.90;68.00;;;;;;5098441;28;20038;-75
2023/04/08 06:52:12;;;;;;;0.10;0.10;;;12.00;67.00;;;;;;5089196;28;20452;-73
2023/04/08 06:54:38;;;;;;;0.10;0.10;;;11.80;67.00;;;;;;5094717;28;20165;-74
2023/04/08 06:57:04;;;;;;;0.20;0.20;;;11.90;66.80;;;;;;5099999;28;20051;-74
2023/04/08 06:59:29;;;;;;;0.08;0.08;;;12.10;66.80;;;;;;5103326;28;20030;-73
2023/04/08 07:01:55;;;;;;;0.00;0.00;;;12.50;65.30;;;;;;5102556;27;20107;-73
2023/04/08 07:04:21;;;;;;;0.10;0.10;;;12.50;65.30;;;;;;5103242;28;20130;-73
2023/04/08 07:06:46;;;;;;;0.30;0.30;;;12.50;64.90;;;;;;5102185;28;20052;-73
2023/04/08 07:09:12;;;;;;;0.10;0.10;;;12.90;64.80;;;;;;5101443;28;20031;-74
2023/04/08 07:11:38;;;;;;;0.10;0.10;;;12.90;65.10;;;;;;5102849;28;20479;-73
2023/04/08 07:14:03;;;;;;;0.00;0.00;;;13.00;63.90;;;;;;5103354;28;20028;-73
2023/04/08 07:16:29;;;;;;;0.10;0.10;;;13.40;62.20;;;;;;5104947;28;20522;-73
2023/04/08 07:18:55;;;;;;;0.60;0.40;;;13.40;63.10;;;;;;5104003;28;20537;-74
2023/04/08 07:21:21;;;;;;;0.00;0.00;;;13.70;61.80;;;;;;5105346;28;20102;-74
2023/04/08 07:23:47;;;;;;;0.30;0.30;;;13.00;62.50;;;;;;5100112;28;20106;-73
2023/04/08 07:26:13;;;;;;;0.23;0.23;;;13.50;61.30;;;;;;5102531;28;20574;-74
2023/04/08 07:28:38;;;;;;;0.10;0.10;;;14.20;61.90;;;;;;5099093;28;20028;-74
2023/04/08 07:31:14;;;;;;;0.13;0.13;;;14.60;59.10;;;;;;5087248;28;20031;-73
2023/04/08 07:33:40;;;;;;;0.00;0.00;;;14.90;59.30;;;;;;5097982;28;20031;-74
2023/04/08 07:36:08;;;;;;;0.00;0.00;;;15.10;59.70;;;;;;5102274;28;20068;-74
2023/04/08 07:38:34;;;;;;;0.20;0.20;;;15.40;59.20;;;;;;5102345;28;20452;-74
2023/04/08 07:41:00;;;;;;;0.52;0.52;;;15.50;58.00;;;;;;5089406;28;20575;-74
2023/04/08 07:43:26;;;;;;;0.00;0.00;;;15.30;57.70;;;;;;5095454;28;20040;-74
2023/04/08 07:45:51;;;;;;;0.10;0.10;;;15.40;56.70;;;;;;5095082;28;20028;-73
2023/04/08 07:48:17;;;;;;;0.17;0.17;;;15.50;56.50;;;;;;5095973;28;20031;-75
2023/04/08 07:50:44;;;;;;;0.10;0.10;;;16.10;56.80;;;;;;5092745;28;20023;-74
2023/04/08 07:53:10;;;;;;;0.90;0.38;;;15.90;56.50;;;;;;5098803;28;20103;-75
2023/04/08 07:55:36;;;;;;;0.07;0.07;;;15.80;55.50;;;;;;5103846;28;20495;-74
2023/04/08 07:58:01;;;;;;;0.05;0.05;;;16.70;54.20;;;;;;5093322;28;20082;-75
2023/04/08 08:00:29;;;;;;;2.40;0.40;;;16.20;53.90;;;;;;5103235;28;20059;-74
2023/04/08 08:02:55;;;;;;;0.00;0.00;;;16.70;54.80;;;;;;5102868;28;20062;-74
2023/04/08 08:05:21;;;;;;;0.28;0.28;;;17.30;54.70;;;;;;5101618;28;20034;-74
2023/04/08 08:07:46;;;;;;;0.00;0.00;;;17.10;54.50;;;;;;5086823;28;20036;-73
2023/04/08 08:10:12;;;;;;;0.20;0.20;;;17.40;52.50;;;;;;5097021;28;20078;-75
2023/04/08 08:12:38;;;;;;;0.00;0.00;;;18.00;53.30;;;;;;5096128;28;20043;-75
2023/04/08 08:15:04;;;;;;;0.00;0.00;;;18.30;51.50;;;;;;5088491;28;20038;-74
2023/04/08 08:17:32;;;;;;;0.05;0.05;;;18.30;51.80;;;;;;5090176;28;20056;-75
2023/04/08 08:19:58;;;;;;;0.00;0.00;;;18.20;50.90;;;;;;5102323;28;20098;-74
2023/04/08 08:22:24;;;;;;;0.00;0.00;;;18.40;49.10;;;;;;5094708;28;20096;-74
2023/04/08 08:24:55;;;;;;;0.00;0.00;;;19.00;49.10;;;;;;5100701;28;20023;-74
2023/04/08 08:27:21;;;;;;;0.35;0.35;;;19.40;48.40;;;;;;5095424;28;20035;-74
2023/04/08 08:29:46;;;;;;;0.10;0.10;;;19.50;47.80;;;;;;5100415;28;20032;-74
2023/04/08 08:32:12;;;;;;;0.00;0.00;;;20.30;50.30;;;;;;5101951;28;20042;-75
2023/04/08 08:34:38;;;;;;;0.00;0.00;;;20.30;48.70;;;;;;5103293;28;20078;-74
2023/04/08 08:37:03;;;;;;;10.83;0.73;;;20.60;47.60;;;;;;5095207;28;20763;-74
2023/04/08 08:39:29;;;;;;;0.00;0.00;;;20.70;46.80;;;;;;5091112;28;20034;-74
2023/04/08 08:41:55;;;;;;;0.00;0.00;;;20.40;48.30;;;;;;5100063;28;20645;-74
2023/04/08 08:44:22;;;;;;;0.50;0.43;;;21.60;46.10;;;;;;5102527;28;20048;-75
2023/04/08 08:46:48;;;;;;;0.00;0.00;;;22.70;45.40;;;;;;5090769;28;20031;-74
2023/04/08 08:49:14;;;;;;;0.10;0.10;;;21.70;44.50;;;;;;5090329;28;20039;-74
2023/04/08 08:51:41;;;;;;;0.00;0.00;;;21.30;45.30;;;;;;5101373;28;20031;-75
2023/04/08 08:54:07;;;;;;;0.05;0.05;;;21.70;45.40;;;;;;5099308;28;20066;-75
2023/04/08 08:56:33;;;;;;;0.60;0.30;;;22.60;44.70;;;;;;5098520;28;20498;-74
2023/04/08 08:58:59;;;;;;;0.37;0.37;;;22.00;46.30;;;;;;5102161;28;20031;-74
2023/04/08 09:01:40;;;;;;;0.00;0.00;;;22.50;43.80;;;;;;5091912;28;20020;-75
2023/04/08 09:04:07;;;;;;;0.00;0.00;;;23.90;42.90;;;;;;5096067;28;20032;-74
2023/04/08 09:06:33;;;;;;;0.00;0.00;;;22.60;41.60;;;;;;5086138;28;20028;-74
2023/04/08 09:08:58;;;;;;;0.00;0.00;;;22.60;42.30;;;;;;5095975;28;20046;-74
2023/04/08 09:11:25;;;;;;;0.07;0.07;;;23.10;41.50;;;;;;5089314;28;20023;-74
2023/04/08 09:13:51;;;;;;;0.45;0.45;;;23.70;41.70;;;;;;5093922;28;20024;-74
2023/04/08 09:16:18;;;;;;;0.03;0.03;;;24.80;41.70;;;;;;5092591;28;20035;-74
2023/04/08 09:18:46;;;;;;;0.00;0.00;;;24.30;41.90;;;;;;5091944;28;20020;-74
2023/04/08 09:21:13;;;;;;;0.00;0.00;;;23.50;41.20;;;;;;5091001;28;20048;-75
2023/04/08 09:23:49;;;;;;;0.05;0.05;;;23.70;41.40;;;;;;5098440;28;20391;-74
2023/04/08 09:26:23;;;;;;;0.25;0.25;;;25.00;39.90;;;;;;5106352;28;20035;-75
2023/04/08 09:29:02;;;;;;;0.10;0.10;;;24.40;40.00;;;;;;5103859;28;20023;-75
2023/04/08 09:31:30;;;;;;;0.00;0.00;;;24.10;38.00;;;;;;5105971;28;20043;-75
2023/04/08 09:33:57;;;;;;;0.00;0.00;;;24.90;38.30;;;;;;5105382;28;20448;-74
2023/04/08 09:36:27;;;;;;;0.00;0.00;;;24.60;38.90;;;;;;5100354;28;20709;-75
2023/04/08 09:38:54;;;;;;;0.22;0.22;;;24.80;37.40;;;;;;5094787;28;20024;-75
2023/04/08 09:41:20;;;;;;;;;;;25.50;39.10;;;;;;5099846;28;20156;-74
2023/04/08 09:43:54;;;;;;;0.03;0.03;;;25.80;37.60;;;;;;5104141;28;20310;-74
2023/04/08 09:46:42;;;;;;;0.30;0.28;;;25.90;36.10;;;;;;5099031;28;20023;-74
2023/04/08 09:49:28;;;;;;;0.00;0.00;;;25.80;37.80;;;;;;5098144;28;20046;-74
2023/04/08 09:52:10;;;;;;;0.00;0.00;;;26.20;36.90;;;;;;5101059;28;20028;-75
2023/04/08 09:54:38;;;;;;;0.15;0.15;;;26.70;38.90;;;;;;5093764;28;20085;-75
2023/04/08 09:57:15;;;;;;;0.00;0.00;;;27.00;37.10;;;;;;5095113;28;20102;-74
2023/04/08 09:59:50;;;;;;;0.00;0.00;;;26.00;36.50;;;;;;5095454;28;20024;-75
2023/04/08 10:02:24;;;;;;;0.28;0.28;;;25.80;39.00;;;;;;5097262;28;20031;-75
2023/04/08 10:04:52;;;;;;;0.25;0.05;;;25.20;37.00;;;;;;5104045;28;20115;-74
2023/04/08 10:07:18;;;;;;;0.00;0.00;;;24.70;38.80;;;;;;5097315;28;20502;-75
2023/04/08 10:09:44;;;;;;;0.07;0.07;;;25.20;34.40;;;;;;5103985;28;20024;-74
2023/04/08 10:12:10;;;;;;;0.00;0.00;;;25.20;36.20;;;;;;5095131;28;20035;-74
2023/04/08 10:14:36;;;;;;;0.00;0.00;;;24.30;37.60;;;;;;5102884;28;20036;-75
2023/04/08 10:17:27;;;;;;;0.07;0.07;;;22.60;38.60;;;;;;5098086;28;20032;-75
2023/04/08 10:19:53;;;;;;;0.20;0.20;;;22.10;43.60;;;;;;5099507;28;20573;-74
2023/04/08 10:22:27;;;;;;;0.40;0.40;;;22.00;39.90;;;;;;5098523;28;20061;-74
2023/04/08 10:25:15;;;;;;;0.00;0.00;;;21.10;43.40;;;;;;5097621;28;20323;-75
2023/04/08 10:27:43;;;;;;;0.05;0.05;;;20.50;43.30;;;;;;5091784;28;20027;-74
2023/04/08 10:30:31;;;;;;;0.00;0.00;;;20.80;43.10;;;;;;5098490;28;20107;-74
2023/04/08 10:32:58;;;;;;;0.00;0.00;;;20.00;46.30;;;;;;5092928;28;20502;-75
2023/04/08 10:35:31;;;;;;;0.00;0.00;;;19.90;47.70;;;;;;5102362;28;20024;-75
2023/04/08 10:37:57;;;;;;;0.00;0.00;;;20.10;44.20;;;;;;5104488;28;20146;-75
2023/04/08 10:40:23;;;;;;;0.20;0.20;;;19.50;42.40;;;;;;5093999;28;20482;-75
2023/04/08 10:42:55;;;;;;;0.03;0.03;;;19.60;45.60;;;;;;5105046;28;20039;-74
2023/04/08 10:45:22;;;;;;;0.05;0.05;;;19.60;44.20;;;;;;5098682;28;20855;-75
2023/04/08 10:47:47;;;;;;;0.00;0.00;;;19.10;48.20;;;;;;5104337;28;20110;-74
2023/04/08 10:50:14;;;;;;;0.10;0.10;;;19.10;44.60;;;;;;5100316;28;20030;-74
2023/04/08 10:52:53;;;;;;;0.10;0.10;;;19.30;47.80;;;;;;5099793;28;20039;-75
2023/04/08 10:55:26;;;;;;;0.00;0.00;;;19.00;47.00;;;;;;5104492;27;20032;-75
2023/04/08 10:57:52;;;;;;;0.00;0.00;;;19.10;47.90;;;;;;5099621;28;20052;-75
2023/04/08 11:00:31;;;;;;;0.15;0.15;;;18.90;49.20;;;;;;5103268;28;20128;-75
2023/04/08 11:03:04;;;;;;;1.55;0.55;;;18.60;48.20;;;;;;5103839;28;20040;-75
2023/04/08 11:05:31;;;;;;;0.10;0.10;;;18.50;47.80;;;;;;5097885;28;20028;-74
2023/04/08 11:08:00;;;;;;;0.25;0.25;;;18.60;49.10;;;;;;5103607;28;20035;-74
2023/04/08 11:10:27;;;;;;;3.67;0.82;;;18.80;51.30;;;;;;5102355;28;20051;-75
2023/04/08 11:12:57;;;;;;;0.00;0.00;;;18.70;48.10;;;;;;5096055;28;20031;-74
2023/04/08 11:15:27;;;;;;;0.10;0.10;;;18.20;45.70;;;;;;5096223;28;20028;-75
2023/04/08 11:17:54;;;;;;;0.00;0.00;;;18.00;47.40;;;;;;5096333;28;20392;-74
2023/04/08 11:20:20;;;;;;;0.10;0.10;;;18.20;50.60;;;;;;5096779;27;20111;-74
2023/04/08 11:22:46;;;;;;;;;;;18.20;47.60;;;;;;5096698;28;20043;-74
2023/04/08 11:25:12;;;;;;;0.00;0.00;;;18.30;49.70;;;;;;5097411;28;19935;-76
2023/04/08 11:27:39;;;;;;;0.10;0.10;;;18.10;46.40;;;;;;5103296;28;20032;-75
2023/04/08 11:30:06;;;;;;;;;;;18.40;47.50;;;;;;5095273;28;20024;-75
2023/04/08 11:32:33;;;;;;;0.00;0.00;;;18.30;49.20;;;;;;5102532;28;19954;-75
2023/04/08 11:35:02;;;;;;;0.00;0.00;;;18.30;45.70;;;;;;5099302;28;20027;-74
2023/04/08 11:37:39;;;;;;;0.10;0.10;;;18.20;47.10;;;;;;5095694;28;20031;-75
2023/04/08 11:40:10;;;;;;;0.10;0.10;;;18.00;46.00;;;;;;5092212;28;20111;-74
2023/04/08 11:42:36;;;;;;;0.52;0.47;;;17.80;47.20;;;;;;5104080;28;20062;-74
2023/04/08 11:45:11;;;;;;;0.25;0.25;;;18.10;49.50;;;;;;5094236;28;20032;-75
2023/04/08 11:47:36;;;;;;;0.10;0.10;;;18.20;50.90;;;;;;5098041;28;20058;-75
2023/04/08 11:50:02;;;;;;;0.00;0.00;;;18.20;45.00;;;;;;5099109;28;20058;-75
2023/04/08 11:52:45;;;;;;;0.00;0.00;;;18.20;44.50;;;;;;5103545;28;20023;-74
2023/04/08 11:55:21;;;;;;;0.40;0.40;;;17.70;48.10;;;;;;5098290;28;20377;-75
2023/04/08 11:57:47;;;;;;;0.00;0.00;;;17.50;45.70;;;;;;5101282;28;20052;-74
2023/04/08 12:00:13;;;;;;;0.23;0.23;;;17.90;48.60;;;;;;5095708;28;20023;-75
2023/04/08 12:02:39;;;;;;;0.00;0.00;;;18.10;50.10;;;;;;5101334;28;20487;-74
2023/04/08 12:05:11;;;;;;;0.32;0.32;;;18.00;53.40;;;;;;5047696;28;20951;-74
2023/04/08 12:07:37;;;;;;;0.00;0.00;;;17.90;54.10;;;;;;5040157;28;20124;-76
2023/04/08 12:10:03;;;;;;;0.00;0.00;;;18.10;52.60;;;;;;5040391;28;20029;-75
2023/04/08 12:12:28;;;;;;;0.00;0.00;;;18.10;52.90;;;;;;5039898;28;20029;-75
2023/04/08 12:14:54;;;;;;;0.00;0.00;;;18.10;51.60;;;;;;5039909;28;20468;-75
2023/04/08 12:17:20;;;;;;;0.00;0.00;;;17.90;50.50;;;;;;5041110;28;20157;-75
2023/04/08 12:19:45;;;;;;;0.00;0.00;;;18.10;54.20;;;;;;5040075;28;20013;-75
2023/04/08 12:22:11;;;;;;;0.00;0.00;;;17.80;50.10;;;;;;5039393;28;20061;-75
2023/04/08 12:24:37;;;;;;;0.20;0.20;;;17.80;50.10;;;;;;5039510;28;20033;-75
2023/04/08 12:27:03;;;;;;;0.20;0.20;;;17.80;51.90;;;;;;5039708;28;20334;-76
2023/04/08 12:29:29;;;;;;;0.00;0.00;;;17.90;54.00;;;;;;5041978;28;20690;-74
2023/04/08 12:31:55;;;;;;;0.10;0.10;;;17.80;51.90;;;;;;5039295;28;20460;-75
2023/04/08 12:34:21;;;;;;;0.00;0.00;;;17.80;52.50;;;;;;5039693;28;20267;-75
2023/04/08 12:36:48;;;;;;;1.60;0.37;;;17.80;55.00;;;;;;5039276;28;20740;-75
2023/04/08 12:39:14;;;;;;;;;;;17.70;50.10;;;;;;5042312;28;20033;-76
2023/04/08 12:41:39;;;;;;;0.00;0.00;;;17.50;52.60;;;;;;5038752;28;19909;-75
2023/04/08 12:44:05;;;;;;;0.00;0.00;;;17.70;52.90;;;;;;5039103;28;20036;-75
2023/04/08 12:46:31;;;;;;;0.07;0.07;;;17.60;49.90;;;;;;5039028;28;20212;-74
2023/04/08 12:48:57;;;;;;;0.10;0.10;;;17.50;49.80;;;;;;5040080;28;20813;-75
2023/04/08 12:51:24;;;;;;;0.43;0.43;;;17.60;54.30;;;;;;5038932;28;20044;-75
2023/04/08 12:53:50;;;;;;;0.15;0.15;;;17.70;48.10;;;;;;5038687;28;20021;-75